createdAt,value
2022-11-17T11:09:23.241Z,98725.59
2022-11-17T11:11:53.562Z,98731.47
2022-11-17T11:14:31.376Z,98741.09
2022-11-17T11:16:57.798Z,98738.31
2022-11-17T11:19:25.244Z,98739.94
2022-11-17T11:22:00.909Z,98744.97
2022-11-17T11:24:35.062Z,98748.41
2022-11-17T11:27:20.034Z,98753.47
2022-11-17T11:30:15.160Z,98757.69
2022-11-17T11:33:25.679Z,98755.06
2022-11-17T11:36:04.765Z,98761.91
2022-11-17T11:38:56.371Z,98759.31
2022-11-17T11:41:41.436Z,98770.59
2022-11-17T11:44:36.051Z,98780.03
2022-11-17T11:47:14.172Z,98779.22
2022-11-17T11:49:52.352Z,98779.22
2022-11-17T11:52:21.554Z,98786.88
2022-11-17T11:54:56.440Z,98790.13
2022-11-17T11:57:30.510Z,98785.72
2022-11-17T12:00:04.333Z,98784.88
2022-11-17T12:02:42.868Z,98791.75
2022-11-17T12:05:16.439Z,98787.16
2022-11-17T12:08:10.339Z,98781.94
2022-11-17T12:10:53.469Z,98784.41
2022-11-17T12:13:23.828Z,98791.41
2022-11-17T12:15:50.670Z,98798.25
2022-11-17T12:18:17.020Z,98786.84
2022-11-17T12:20:56.167Z,98793.66
2022-11-17T12:23:33.502Z,98789.44
2022-11-17T12:26:01.699Z,98800.50
2022-11-17T12:28:38.110Z,98793.66
2022-11-17T12:31:43.707Z,98796.09
2022-11-17T12:34:23.082Z,98787.47
2022-11-17T12:37:06.033Z,98799.53
2022-11-17T12:40:04.541Z,98803.13
2022-11-17T12:42:35.452Z,98800.34
2022-11-17T12:45:10.626Z,98803.75
2022-11-17T12:47:40.313Z,98807.19
2022-11-17T12:50:21.748Z,98806.19
2022-11-17T12:53:09.478Z,98814.84
2022-11-17T12:55:35.758Z,98807.03
2022-11-17T12:58:14.147Z,98816.50
2022-11-17T13:00:52.789Z,98819.25
2022-11-17T13:03:28.262Z,98824.47
2022-11-17T13:09:23.053Z,98832.31
2022-11-17T13:12:06.915Z,98840.13
2022-11-17T13:14:35.076Z,98840.00
2022-11-17T13:17:02.684Z,98836.53
2022-11-17T13:19:29.006Z,98843.41
2022-11-17T13:22:01.845Z,98841.59
2022-11-17T13:24:31.541Z,98850.44
2022-11-17T13:27:00.069Z,98858.28
2022-11-17T13:29:26.573Z,98858.28
2022-11-17T13:32:11.732Z,98859.88
2022-11-17T13:34:46.529Z,98859.06
2022-11-17T13:37:22.287Z,98865.28
2022-11-17T13:39:55.699Z,98864.31
2022-11-17T13:42:25.170Z,98865.28
2022-11-17T13:44:54.733Z,98864.13
2022-11-17T13:47:28.112Z,98857.09
2022-11-17T13:49:54.533Z,98863.16
2022-11-17T13:52:42.182Z,98867.53
2022-11-17T13:55:19.862Z,98865.75
2022-11-17T13:58:05.437Z,98872.59
2022-11-17T14:00:32.457Z,98875.19
2022-11-17T14:03:04.796Z,98878.66
2022-11-17T14:05:32.774Z,98875.84
2022-11-17T14:08:13.292Z,98887.91
2022-11-17T14:10:40.067Z,98888.09
2022-11-17T14:13:06.363Z,98892.16
2022-11-17T14:15:37.420Z,98885.97
2022-11-17T14:18:25.509Z,98891.00
2022-11-17T14:21:15.112Z,98892.81
2022-11-17T14:23:42.894Z,98892.81
2022-11-17T14:26:23.941Z,98890.22
2022-11-17T14:28:52.036Z,98904.25
2022-11-17T14:31:19.209Z,98900.66
2022-11-17T14:33:46.005Z,98902.97
2022-11-17T14:36:16.640Z,98903.31
2022-11-17T14:38:44.680Z,98901.50
2022-11-17T14:41:11.016Z,98902.97
2022-11-17T14:43:37.448Z,98901.97
2022-11-17T14:46:03.984Z,98907.22
2022-11-17T14:48:30.435Z,98912.09
2022-11-17T14:50:58.322Z,98916.50
2022-11-17T14:53:25.659Z,98918.09
2022-11-17T14:55:53.210Z,98925.13
2022-11-17T14:58:20.079Z,98925.13
2022-11-17T15:00:46.483Z,98925.94
2022-11-17T15:03:12.957Z,98926.78
2022-11-17T15:05:46.201Z,98937.22
2022-11-17T15:08:12.884Z,98936.22
2022-11-17T15:10:45.702Z,98937.22
2022-11-17T15:13:12.562Z,98946.84
2022-11-17T15:15:39.048Z,98936.41
2022-11-17T15:18:05.534Z,98946.22
2022-11-17T15:20:31.907Z,98939.53
2022-11-17T15:23:03.061Z,98952.75
2022-11-17T15:25:29.951Z,98946.56
2022-11-17T15:27:56.679Z,98951.59
2022-11-17T15:30:23.062Z,98956.84
2022-11-17T15:32:49.431Z,98963.66
2022-11-17T15:35:15.940Z,98956.66
2022-11-17T15:37:42.329Z,98950.47
2022-11-17T15:40:09.360Z,98968.75
2022-11-17T15:42:35.795Z,98970.53
2022-11-17T15:45:02.198Z,98974.78
2022-11-17T15:47:28.531Z,98972.00
2022-11-17T15:49:58.385Z,98979.66
2022-11-17T15:52:41.475Z,98982.25
2022-11-17T15:55:11.614Z,98974.59
2022-11-17T15:57:37.936Z,98980.63
2022-11-17T16:00:06.700Z,98987.50
2022-11-17T16:02:33.066Z,98986.69
2022-11-17T16:04:59.442Z,98991.91
2022-11-17T16:07:25.871Z,98984.25
2022-11-17T16:09:52.806Z,98991.91
2022-11-17T16:12:19.305Z,98993.22
2022-11-17T16:14:45.686Z,98999.59
2022-11-17T16:17:12.033Z,98998.97
2022-11-17T16:19:38.401Z,98999.94
2022-11-17T16:22:04.736Z,99000.13
2022-11-17T16:24:31.040Z,99005.50
2022-11-17T16:26:57.344Z,99002.22
2022-11-17T16:29:24.755Z,99008.47
2022-11-17T16:31:51.068Z,99014.03
2022-11-17T16:34:18.821Z,99012.38
2022-11-17T16:36:45.282Z,99009.94
2022-11-17T16:39:15.409Z,99013.53
2022-11-17T16:41:45.304Z,99014.50
2022-11-17T16:44:14.503Z,99019.72
2022-11-17T16:46:43.369Z,99027.25
2022-11-17T16:49:12.574Z,99026.25
2022-11-17T16:51:39.343Z,99033.91
2022-11-17T16:54:10.793Z,99031.97
2022-11-17T16:56:37.204Z,99033.75
2022-11-17T16:59:04.028Z,99037.19
2022-11-17T17:01:32.933Z,99038.78
2022-11-17T17:04:05.157Z,99030.66
2022-11-17T17:06:31.732Z,99046.16
2022-11-17T17:09:01.068Z,99039.94
2022-11-17T17:11:29.173Z,99052.19
2022-11-17T17:13:59.991Z,99054.00
2022-11-17T17:16:26.401Z,99050.38
2022-11-17T17:18:59.315Z,99057.41
2022-11-17T17:21:26.980Z,99063.44
2022-11-17T17:23:53.821Z,99061.81
2022-11-17T17:26:22.441Z,99069.50
2022-11-17T17:28:51.008Z,99074.72
2022-11-17T17:31:21.602Z,99075.34
2022-11-17T17:33:50.223Z,99089.22
2022-11-17T17:36:19.867Z,99086.44
2022-11-17T17:38:51.838Z,99087.25
2022-11-17T17:41:23.141Z,99088.06
2022-11-17T17:43:55.164Z,99097.72
2022-11-17T17:46:21.541Z,99103.56
2022-11-17T17:48:47.871Z,99106.19
2022-11-17T17:51:19.555Z,99109.63
2022-11-17T17:53:49.999Z,99108.63
2022-11-17T17:56:18.986Z,99120.88
2022-11-17T17:58:46.822Z,99114.69
2022-11-17T18:01:17.199Z,99125.94
2022-11-17T18:03:48.078Z,99131.16
2022-11-17T18:06:16.646Z,99133.78
2022-11-17T18:08:43.709Z,99138.03
2022-11-17T18:11:13.051Z,99142.41
2022-11-17T18:13:41.777Z,99150.25
2022-11-17T18:16:23.245Z,99148.81
2022-11-17T18:18:50.525Z,99147.66
2022-11-17T18:21:19.169Z,99152.88
2022-11-17T18:23:45.815Z,99136.41
2022-11-17T18:26:18.368Z,99141.63
2022-11-17T18:28:51.098Z,99140.81
2022-11-17T18:31:17.452Z,99144.22
2022-11-17T18:33:46.884Z,99147.66
2022-11-17T18:36:13.281Z,99152.06
2022-11-17T18:38:39.674Z,99147.66
2022-11-17T18:41:12.295Z,99150.25
2022-11-17T18:43:39.295Z,99149.47
2022-11-17T18:46:08.459Z,99161.38
2022-11-17T18:48:37.228Z,99164.63
2022-11-17T18:51:22.237Z,99164.78
2022-11-17T18:53:49.923Z,99173.25
2022-11-17T18:56:18.516Z,99183.59
2022-11-17T18:58:45.176Z,99180.81
2022-11-17T19:01:14.526Z,99178.81
2022-11-17T19:03:42.546Z,99184.69
2022-11-17T19:06:09.681Z,99189.75
2022-11-17T19:08:37.073Z,99193.38
2022-11-17T19:11:06.508Z,99190.75
2022-11-17T19:13:35.158Z,99195.13
2022-11-17T19:16:12.296Z,99192.53
2022-11-17T19:18:39.312Z,99209.84
2022-11-17T19:21:08.438Z,99207.22
2022-11-17T19:23:36.385Z,99215.06
2022-11-17T19:26:05.059Z,99215.88
2022-11-17T19:28:31.975Z,99216.72
2022-11-17T19:31:09.464Z,99224.38
2022-11-17T19:33:37.323Z,99229.59
2022-11-17T19:36:08.738Z,99230.41
2022-11-17T19:38:38.278Z,99238.09
2022-11-17T19:41:10.292Z,99233.69
2022-11-17T19:43:43.390Z,99232.84
2022-11-17T19:46:13.484Z,99241.53
2022-11-17T19:48:41.007Z,99249.38
2022-11-17T19:51:14.620Z,99249.38
2022-11-17T19:53:41.455Z,99251.16
2022-11-17T19:56:08.626Z,99253.59
2022-11-17T19:58:35.077Z,99256.22
2022-11-17T20:01:15.500Z,99265.84
2022-11-17T20:03:42.806Z,99270.91
2022-11-17T20:06:12.505Z,99276.78
2022-11-17T20:08:39.535Z,99280.22
2022-11-17T20:11:07.268Z,99282.69
2022-11-17T20:13:33.741Z,99291.00
2022-11-17T20:16:01.261Z,99290.81
2022-11-17T20:18:28.369Z,99296.06
2022-11-17T20:20:54.784Z,99301.44
2022-11-17T20:23:21.408Z,99302.28
2022-11-17T20:25:47.973Z,99315.34
2022-11-17T20:28:14.781Z,99312.06
2022-11-17T20:30:41.487Z,99316.31
2022-11-17T20:33:07.863Z,99325.97
2022-11-17T20:35:35.605Z,99329.56
2022-11-17T20:38:04.901Z,99325.97
2022-11-17T20:40:32.632Z,99342.47
2022-11-17T20:42:59.677Z,99342.28
2022-11-17T20:45:26.125Z,99339.69
2022-11-17T20:47:52.495Z,99352.91
2022-11-17T20:50:18.868Z,99346.88
2022-11-17T20:52:45.236Z,99352.09
2022-11-17T20:55:11.562Z,99357.34
2022-11-17T20:57:38.382Z,99360.94
2022-11-17T21:00:05.712Z,99362.56
2022-11-17T21:02:32.115Z,99360.13
2022-11-17T21:04:58.419Z,99370.56
2022-11-17T21:07:24.837Z,99367.13
2022-11-17T21:09:51.242Z,99377.41
2022-11-17T21:12:17.583Z,99378.25
2022-11-17T21:14:43.890Z,99384.28
2022-11-17T21:17:30.323Z,99385.09
2022-11-17T21:19:56.737Z,99394.75
2022-11-17T21:22:23.059Z,99392.94
2022-11-17T21:24:49.433Z,99391.47
2022-11-17T21:27:19.674Z,99395.88
2022-11-17T21:29:46.615Z,99389.84
2022-11-17T21:32:12.966Z,99396.03
2022-11-17T21:34:39.353Z,99400.44
2022-11-17T21:37:05.798Z,99407.31
2022-11-17T21:39:32.126Z,99403.06
2022-11-17T21:41:58.492Z,99401.44
2022-11-17T21:44:24.809Z,99400.63
2022-11-17T21:46:51.152Z,99411.06
2022-11-17T21:49:17.754Z,99407.13
2022-11-17T21:51:45.379Z,99409.75
2022-11-17T21:54:11.749Z,99413.34
2022-11-17T21:56:38.309Z,99419.56
2022-11-17T21:59:12.583Z,99429.34
2022-11-17T22:01:39.889Z,99426.88
2022-11-17T22:04:06.493Z,99422.78
2022-11-17T22:06:32.999Z,99437.66
2022-11-17T22:08:59.487Z,99440.28
2022-11-17T22:11:37.842Z,99437.81
2022-11-17T22:14:13.574Z,99446.97
2022-11-17T22:16:45.076Z,99448.59
2022-11-17T22:19:13.323Z,99451.06
2022-11-17T22:21:40.583Z,99446.78
2022-11-17T22:24:09.965Z,99457.25
2022-11-17T22:26:38.234Z,99454.47
2022-11-17T22:29:07.119Z,99458.72
2022-11-17T22:31:33.719Z,99463.94
2022-11-17T22:34:00.089Z,99464.75
2022-11-17T22:36:26.412Z,99466.56
2022-11-17T22:38:53.229Z,99467.38
2022-11-17T22:41:20.972Z,99483.22
2022-11-17T22:43:55.341Z,99476.22
2022-11-17T22:46:23.917Z,99482.41
2022-11-17T22:48:50.333Z,99480.44
2022-11-17T22:51:37.124Z,99488.44
2022-11-17T22:54:04.850Z,99492.03
2022-11-17T22:56:31.806Z,99494.63
2022-11-17T22:58:59.859Z,99493.03
2022-11-17T23:01:26.460Z,99502.47
2022-11-17T23:03:52.904Z,99512.13
2022-11-17T23:06:19.389Z,99513.09
2022-11-17T23:08:45.705Z,99508.69
2022-11-17T23:13:58.522Z,99526.16
2022-11-17T23:16:24.979Z,99522.72
2022-11-17T23:18:55.715Z,99524.53
2022-11-17T23:21:23.320Z,99522.72
2022-11-17T23:23:50.078Z,99524.53
2022-11-17T23:26:16.556Z,99536.75
2022-11-17T23:28:43.515Z,99534.16
2022-11-17T23:31:13.140Z,99535.13
2022-11-17T23:33:44.818Z,99541.34
2022-11-17T23:36:16.879Z,99538.72
2022-11-17T23:38:44.229Z,99544.75
2022-11-17T23:41:13.510Z,99544.75
2022-11-17T23:43:40.346Z,99553.59
2022-11-17T23:46:10.722Z,99552.75
2022-11-17T23:48:37.408Z,99551.13
2022-11-17T23:51:07.980Z,99559.78
2022-11-17T23:53:34.830Z,99559.94
2022-11-17T23:56:01.850Z,99552.09
2022-11-17T23:58:29.059Z,99557.47
